Manhattan, Montana
Current Conditions -  °F | °C
As of 9:56 AM on Saturday 22 Nov 2014 (Local Time) from KBZN Reporting Station
Overcast Overcast  
Wind Chill: 29°   Ceiling: 9000
Heat Index: 39°   Visibility: 10mi
Dew Point: 33°   Wind: 20mph
Humidity: 79%   Direction: 250°WSW
Pressure: 29.46"   Gusts: 25mph
Location:  45.86°N, 111.33°W
Report Text: KBZN 221656Z 25017G22KT 10SM FEW042 SCT055 OVC090 04/01 A2946 RMK AO2 PK WND 25036/1624 RAE45 SLP992 P0003 T00390006
Loading
Personal Weather Stations






























Interactive Weather Map New forecast layout! Learn more

10-Day Weather Forecast

Advertisements
Track Severe Weather on mobile